Aviation Digital Data Service (ADDS)

Output produced by METARs form (0041 UTC 26 June 2019)
found at http://aviationweather.gov/metar/data/
 
KSGR 252353Z 14009KT 10SM -RA SCT120 24/23 A3002 RMK AO2 SLP168 P0002 60004 T02390228 10256 20239 57009
KSGR 252320Z 2600/2624 15009KT P6SM VCSH FEW060 SCT070 BKN100 
     TEMPO 2600/2602 -RA 
     FM260200 13007KT P6SM SCT030 BKN150 
     FM260900 13006KT P6SM BKN020 
     FM261400 14008KT P6SM VCSH SCT030 
     FM261800 14008KT P6SM VCTS SCT040CB